sensor_id;sensor_type;location;lat;lon;timestamp;P1;durP1;ratioP1;P2;durP2;ratioP2
11907;SDS011;6014;47.690;9.130;2022-11-11T00:01:10;12.43;;;6.45;;
11907;SDS011;6014;47.690;9.130;2022-11-11T00:03:41;21.13;;;6.70;;
11907;SDS011;6014;47.690;9.130;2022-11-11T00:06:10;22.63;;;7.57;;
11907;SDS011;6014;47.690;9.130;2022-11-11T00:08:40;16.92;;;6.55;;
11907;SDS011;6014;47.690;9.130;2022-11-11T00:11:10;28.83;;;7.45;;
11907;SDS011;6014;47.690;9.130;2022-11-11T00:13:39;15.48;;;6.47;;
11907;SDS011;6014;47.690;9.130;2022-11-11T00:16:11;22.58;;;6.80;;
11907;SDS011;6014;47.690;9.130;2022-11-11T00:18:42;20.92;;;6.38;;
11907;SDS011;6014;47.690;9.130;2022-11-11T00:21:31;12.77;;;6.70;;
11907;SDS011;6014;47.690;9.130;2022-11-11T00:24:22;16.85;;;7.15;;
11907;SDS011;6014;47.690;9.130;2022-11-11T00:27:10;31.73;;;7.55;;
11907;SDS011;6014;47.690;9.130;2022-11-11T00:29:40;31.15;;;7.88;;
11907;SDS011;6014;47.690;9.130;2022-11-11T00:32:14;19.23;;;7.00;;
11907;SDS011;6014;47.690;9.130;2022-11-11T00:34:53;25.63;;;7.78;;
11907;SDS011;6014;47.690;9.130;2022-11-11T00:37:41;28.58;;;7.00;;
11907;SDS011;6014;47.690;9.130;2022-11-11T00:40:12;44.10;;;7.95;;
11907;SDS011;6014;47.690;9.130;2022-11-11T00:42:40;18.30;;;6.90;;
11907;SDS011;6014;47.690;9.130;2022-11-11T00:45:09;23.48;;;7.65;;
11907;SDS011;6014;47.690;9.130;2022-11-11T00:47:39;28.83;;;7.47;;
11907;SDS011;6014;47.690;9.130;2022-11-11T00:50:28;33.10;;;7.13;;
11907;SDS011;6014;47.690;9.130;2022-11-11T00:53:16;48.75;;;7.68;;
11907;SDS011;6014;47.690;9.130;2022-11-11T00:55:51;29.48;;;6.70;;
11907;SDS011;6014;47.690;9.130;2022-11-11T00:58:20;16.92;;;6.18;;
11907;SDS011;6014;47.690;9.130;2022-11-11T01:00:51;14.93;;;5.55;;
11907;SDS011;6014;47.690;9.130;2022-11-11T01:03:21;13.48;;;5.93;;
11907;SDS011;6014;47.690;9.130;2022-11-11T01:05:50;26.38;;;7.30;;
11907;SDS011;6014;47.690;9.130;2022-11-11T01:08:19;23.35;;;6.90;;
11907;SDS011;6014;47.690;9.130;2022-11-11T01:10:48;19.88;;;6.72;;
11907;SDS011;6014;47.690;9.130;2022-11-11T01:13:17;12.63;;;7.00;;
11907;SDS011;6014;47.690;9.130;2022-11-11T01:15:48;32.05;;;7.63;;
11907;SDS011;6014;47.690;9.130;2022-11-11T01:18:21;24.25;;;7.15;;
11907;SDS011;6014;47.690;9.130;2022-11-11T01:20:56;20.45;;;7.10;;
11907;SDS011;6014;47.690;9.130;2022-11-11T01:23:26;25.58;;;8.85;;
11907;SDS011;6014;47.690;9.130;2022-11-11T01:25:59;26.10;;;7.35;;
11907;SDS011;6014;47.690;9.130;2022-11-11T01:28:29;23.25;;;6.85;;
11907;SDS011;6014;47.690;9.130;2022-11-11T01:31:03;38.33;;;8.30;;
11907;SDS011;6014;47.690;9.130;2022-11-11T01:33:35;21.67;;;7.57;;
11907;SDS011;6014;47.690;9.130;2022-11-11T01:36:05;14.57;;;6.57;;
11907;SDS011;6014;47.690;9.130;2022-11-11T01:38:36;20.50;;;7.55;;
11907;SDS011;6014;47.690;9.130;2022-11-11T01:41:06;12.65;;;7.82;;
11907;SDS011;6014;47.690;9.130;2022-11-11T01:43:55;45.53;;;8.32;;
11907;SDS011;6014;47.690;9.130;2022-11-11T01:46:29;17.90;;;6.75;;
11907;SDS011;6014;47.690;9.130;2022-11-11T01:49:08;22.75;;;7.05;;
11907;SDS011;6014;47.690;9.130;2022-11-11T01:51:52;25.25;;;8.57;;
11907;SDS011;6014;47.690;9.130;2022-11-11T01:54:27;15.48;;;6.93;;
11907;SDS011;6014;47.690;9.130;2022-11-11T01:57:01;17.92;;;7.20;;
11907;SDS011;6014;47.690;9.130;2022-11-11T01:59:36;34.38;;;7.57;;
11907;SDS011;6014;47.690;9.130;2022-11-11T02:02:11;26.70;;;6.60;;
11907;SDS011;6014;47.690;9.130;2022-11-11T02:04:50;32.85;;;7.75;;
11907;SDS011;6014;47.690;9.130;2022-11-11T02:07:36;45.85;;;7.90;;
11907;SDS011;6014;47.690;9.130;2022-11-11T02:10:07;24.58;;;6.50;;
11907;SDS011;6014;47.690;9.130;2022-11-11T02:12:36;32.40;;;7.15;;
11907;SDS011;6014;47.690;9.130;2022-11-11T02:15:22;14.35;;;6.05;;
11907;SDS011;6014;47.690;9.130;2022-11-11T02:17:51;23.20;;;5.82;;
11907;SDS011;6014;47.690;9.130;2022-11-11T02:20:21;34.65;;;6.50;;
11907;SDS011;6014;47.690;9.130;2022-11-11T02:22:54;8.90;;;5.18;;
11907;SDS011;6014;47.690;9.130;2022-11-11T02:25:30;16.55;;;5.57;;
11907;SDS011;6014;47.690;9.130;2022-11-11T02:28:02;10.63;;;5.40;;
11907;SDS011;6014;47.690;9.130;2022-11-11T02:30:33;11.20;;;5.68;;
11907;SDS011;6014;47.690;9.130;2022-11-11T02:33:02;22.25;;;5.97;;
11907;SDS011;6014;47.690;9.130;2022-11-11T02:35:31;15.70;;;6.38;;
11907;SDS011;6014;47.690;9.130;2022-11-11T02:38:03;15.25;;;5.47;;
11907;SDS011;6014;47.690;9.130;2022-11-11T02:40:36;11.38;;;6.20;;
11907;SDS011;6014;47.690;9.130;2022-11-11T02:43:29;13.45;;;6.32;;
11907;SDS011;6014;47.690;9.130;2022-11-11T02:45:58;11.82;;;6.28;;
11907;SDS011;6014;47.690;9.130;2022-11-11T02:48:28;13.60;;;6.22;;
11907;SDS011;6014;47.690;9.130;2022-11-11T02:50:57;9.95;;;6.78;;
11907;SDS011;6014;47.690;9.130;2022-11-11T02:53:26;11.05;;;6.32;;
11907;SDS011;6014;47.690;9.130;2022-11-11T02:55:56;21.08;;;7.65;;
11907;SDS011;6014;47.690;9.130;2022-11-11T02:58:25;53.75;;;9.05;;
11907;SDS011;6014;47.690;9.130;2022-11-11T03:00:53;18.70;;;8.25;;
11907;SDS011;6014;47.690;9.130;2022-11-11T03:03:21;32.28;;;9.45;;
11907;SDS011;6014;47.690;9.130;2022-11-11T03:05:50;24.77;;;8.93;;
11907;SDS011;6014;47.690;9.130;2022-11-11T03:08:19;18.50;;;8.15;;
11907;SDS011;6014;47.690;9.130;2022-11-11T03:10:47;13.15;;;8.07;;
11907;SDS011;6014;47.690;9.130;2022-11-11T03:13:20;27.05;;;8.27;;
11907;SDS011;6014;47.690;9.130;2022-11-11T03:15:49;16.85;;;8.77;;
11907;SDS011;6014;47.690;9.130;2022-11-11T03:18:17;26.88;;;9.77;;
11907;SDS011;6014;47.690;9.130;2022-11-11T03:20:45;17.33;;;8.52;;
11907;SDS011;6014;47.690;9.130;2022-11-11T03:23:51;15.02;;;7.60;;
11907;SDS011;6014;47.690;9.130;2022-11-11T03:26:20;17.58;;;9.30;;
11907;SDS011;6014;47.690;9.130;2022-11-11T03:28:48;19.13;;;9.48;;
11907;SDS011;6014;47.690;9.130;2022-11-11T03:31:17;25.50;;;10.23;;
11907;SDS011;6014;47.690;9.130;2022-11-11T03:33:46;13.90;;;7.82;;
11907;SDS011;6014;47.690;9.130;2022-11-11T03:36:14;15.23;;;8.25;;
11907;SDS011;6014;47.690;9.130;2022-11-11T03:38:43;13.40;;;8.27;;
11907;SDS011;6014;47.690;9.130;2022-11-11T03:41:10;10.95;;;6.57;;
11907;SDS011;6014;47.690;9.130;2022-11-11T03:43:39;12.98;;;7.68;;
11907;SDS011;6014;47.690;9.130;2022-11-11T03:46:09;12.60;;;6.47;;
11907;SDS011;6014;47.690;9.130;2022-11-11T03:48:37;11.93;;;7.18;;
11907;SDS011;6014;47.690;9.130;2022-11-11T03:51:06;10.57;;;6.03;;
11907;SDS011;6014;47.690;9.130;2022-11-11T03:53:34;9.07;;;5.18;;
11907;SDS011;6014;47.690;9.130;2022-11-11T03:56:03;9.43;;;5.45;;
11907;SDS011;6014;47.690;9.130;2022-11-11T03:58:31;8.35;;;4.88;;
11907;SDS011;6014;47.690;9.130;2022-11-11T04:01:00;10.10;;;5.15;;
11907;SDS011;6014;47.690;9.130;2022-11-11T04:03:50;8.75;;;5.03;;
11907;SDS011;6014;47.690;9.130;2022-11-11T04:06:50;10.68;;;5.07;;
11907;SDS011;6014;47.690;9.130;2022-11-11T04:09:37;7.05;;;4.28;;
11907;SDS011;6014;47.690;9.130;2022-11-11T04:12:22;8.85;;;4.43;;
11907;SDS011;6014;47.690;9.130;2022-11-11T04:14:53;7.50;;;3.95;;
11907;SDS011;6014;47.690;9.130;2022-11-11T04:17:38;8.13;;;4.45;;
11907;SDS011;6014;47.690;9.130;2022-11-11T04:20:09;6.97;;;3.92;;
11907;SDS011;6014;47.690;9.130;2022-11-11T04:22:55;7.22;;;4.28;;
11907;SDS011;6014;47.690;9.130;2022-11-11T04:25:23;7.85;;;4.40;;
11907;SDS011;6014;47.690;9.130;2022-11-11T04:28:07;8.75;;;4.20;;
11907;SDS011;6014;47.690;9.130;2022-11-11T04:30:53;11.65;;;5.30;;
11907;SDS011;6014;47.690;9.130;2022-11-11T04:33:22;8.07;;;4.53;;
11907;SDS011;6014;47.690;9.130;2022-11-11T04:35:52;9.85;;;7.03;;
11907;SDS011;6014;47.690;9.130;2022-11-11T04:38:21;8.57;;;4.60;;
11907;SDS011;6014;47.690;9.130;2022-11-11T04:41:06;9.60;;;4.97;;
11907;SDS011;6014;47.690;9.130;2022-11-11T04:43:36;8.15;;;4.97;;
11907;SDS011;6014;47.690;9.130;2022-11-11T04:46:18;9.98;;;5.10;;
11907;SDS011;6014;47.690;9.130;2022-11-11T04:48:47;10.05;;;5.07;;
11907;SDS011;6014;47.690;9.130;2022-11-11T04:51:21;10.40;;;5.55;;
11907;SDS011;6014;47.690;9.130;2022-11-11T04:54:13;8.13;;;5.30;;
11907;SDS011;6014;47.690;9.130;2022-11-11T04:56:42;9.57;;;5.30;;
11907;SDS011;6014;47.690;9.130;2022-11-11T04:59:16;9.20;;;4.93;;
11907;SDS011;6014;47.690;9.130;2022-11-11T05:01:45;8.73;;;5.50;;
11907;SDS011;6014;47.690;9.130;2022-11-11T05:04:31;8.77;;;5.43;;
11907;SDS011;6014;47.690;9.130;2022-11-11T05:07:03;9.02;;;5.70;;
11907;SDS011;6014;47.690;9.130;2022-11-11T05:09:49;8.20;;;4.85;;
11907;SDS011;6014;47.690;9.130;2022-11-11T05:12:17;9.73;;;5.50;;
11907;SDS011;6014;47.690;9.130;2022-11-11T05:14:46;9.75;;;5.53;;
11907;SDS011;6014;47.690;9.130;2022-11-11T05:17:32;11.45;;;5.53;;
11907;SDS011;6014;47.690;9.130;2022-11-11T05:20:17;11.13;;;5.72;;
11907;SDS011;6014;47.690;9.130;2022-11-11T05:23:06;8.48;;;5.25;;
11907;SDS011;6014;47.690;9.130;2022-11-11T05:25:34;9.82;;;5.32;;
11907;SDS011;6014;47.690;9.130;2022-11-11T05:28:01;9.18;;;5.88;;
11907;SDS011;6014;47.690;9.130;2022-11-11T05:30:30;11.02;;;5.78;;
11907;SDS011;6014;47.690;9.130;2022-11-11T05:33:00;7.97;;;5.05;;
11907;SDS011;6014;47.690;9.130;2022-11-11T05:35:29;9.18;;;5.35;;
11907;SDS011;6014;47.690;9.130;2022-11-11T05:38:00;7.70;;;4.88;;
11907;SDS011;6014;47.690;9.130;2022-11-11T05:40:49;9.88;;;6.07;;
11907;SDS011;6014;47.690;9.130;2022-11-11T05:43:18;7.88;;;5.25;;
11907;SDS011;6014;47.690;9.130;2022-11-11T05:45:46;10.85;;;5.40;;
11907;SDS011;6014;47.690;9.130;2022-11-11T05:48:14;12.25;;;6.35;;
11907;SDS011;6014;47.690;9.130;2022-11-11T05:50:43;10.77;;;5.95;;
11907;SDS011;6014;47.690;9.130;2022-11-11T05:53:11;10.73;;;6.10;;
11907;SDS011;6014;47.690;9.130;2022-11-11T05:55:40;10.32;;;6.00;;
11907;SDS011;6014;47.690;9.130;2022-11-11T05:58:10;11.70;;;6.13;;
11907;SDS011;6014;47.690;9.130;2022-11-11T06:00:39;10.85;;;6.07;;
11907;SDS011;6014;47.690;9.130;2022-11-11T06:03:07;12.43;;;5.97;;
11907;SDS011;6014;47.690;9.130;2022-11-11T06:05:36;10.15;;;6.25;;
11907;SDS011;6014;47.690;9.130;2022-11-11T06:08:04;12.07;;;6.93;;
11907;SDS011;6014;47.690;9.130;2022-11-11T06:10:33;10.45;;;5.80;;
11907;SDS011;6014;47.690;9.130;2022-11-11T06:13:01;10.75;;;6.65;;
11907;SDS011;6014;47.690;9.130;2022-11-11T06:15:34;11.75;;;6.97;;
11907;SDS011;6014;47.690;9.130;2022-11-11T06:18:04;10.70;;;6.75;;
11907;SDS011;6014;47.690;9.130;2022-11-11T06:20:33;12.43;;;6.95;;
11907;SDS011;6014;47.690;9.130;2022-11-11T06:23:08;13.55;;;6.60;;
11907;SDS011;6014;47.690;9.130;2022-11-11T06:25:37;8.57;;;5.85;;
11907;SDS011;6014;47.690;9.130;2022-11-11T06:28:23;10.32;;;6.25;;
11907;SDS011;6014;47.690;9.130;2022-11-11T06:30:53;13.38;;;6.70;;
11907;SDS011;6014;47.690;9.130;2022-11-11T06:33:21;9.95;;;6.28;;
11907;SDS011;6014;47.690;9.130;2022-11-11T06:35:52;10.77;;;6.38;;
11907;SDS011;6014;47.690;9.130;2022-11-11T06:38:21;9.95;;;5.68;;
11907;SDS011;6014;47.690;9.130;2022-11-11T06:40:49;9.82;;;5.63;;
11907;SDS011;6014;47.690;9.130;2022-11-11T06:43:17;11.55;;;5.88;;
11907;SDS011;6014;47.690;9.130;2022-11-11T06:45:48;9.10;;;5.45;;
11907;SDS011;6014;47.690;9.130;2022-11-11T06:48:18;12.85;;;7.35;;
11907;SDS011;6014;47.690;9.130;2022-11-11T06:50:47;11.68;;;6.90;;
11907;SDS011;6014;47.690;9.130;2022-11-11T06:53:16;10.80;;;6.70;;
11907;SDS011;6014;47.690;9.130;2022-11-11T06:55:47;17.02;;;7.53;;
11907;SDS011;6014;47.690;9.130;2022-11-11T06:58:19;13.73;;;7.78;;
11907;SDS011;6014;47.690;9.130;2022-11-11T07:00:49;14.93;;;8.30;;
11907;SDS011;6014;47.690;9.130;2022-11-11T07:03:19;14.43;;;8.15;;
11907;SDS011;6014;47.690;9.130;2022-11-11T07:05:51;17.13;;;8.70;;
11907;SDS011;6014;47.690;9.130;2022-11-11T07:08:24;13.00;;;7.55;;
11907;SDS011;6014;47.690;9.130;2022-11-11T07:10:54;14.88;;;8.35;;
11907;SDS011;6014;47.690;9.130;2022-11-11T07:13:22;16.73;;;7.82;;
11907;SDS011;6014;47.690;9.130;2022-11-11T07:15:51;15.98;;;8.25;;
11907;SDS011;6014;47.690;9.130;2022-11-11T07:18:21;18.75;;;8.75;;
11907;SDS011;6014;47.690;9.130;2022-11-11T07:20:50;15.07;;;8.90;;
11907;SDS011;6014;47.690;9.130;2022-11-11T07:23:18;15.10;;;8.27;;
11907;SDS011;6014;47.690;9.130;2022-11-11T07:25:47;14.65;;;7.90;;
11907;SDS011;6014;47.690;9.130;2022-11-11T07:28:16;18.15;;;8.57;;
11907;SDS011;6014;47.690;9.130;2022-11-11T07:30:44;16.70;;;8.65;;
11907;SDS011;6014;47.690;9.130;2022-11-11T07:33:13;14.23;;;7.47;;
11907;SDS011;6014;47.690;9.130;2022-11-11T07:35:49;14.98;;;8.07;;
11907;SDS011;6014;47.690;9.130;2022-11-11T07:38:18;19.42;;;8.77;;
11907;SDS011;6014;47.690;9.130;2022-11-11T07:40:47;14.82;;;8.63;;
11907;SDS011;6014;47.690;9.130;2022-11-11T07:43:15;16.15;;;8.70;;
11907;SDS011;6014;47.690;9.130;2022-11-11T07:45:44;15.68;;;8.57;;
11907;SDS011;6014;47.690;9.130;2022-11-11T07:48:12;15.00;;;8.80;;
11907;SDS011;6014;47.690;9.130;2022-11-11T07:50:41;16.08;;;9.68;;
11907;SDS011;6014;47.690;9.130;2022-11-11T07:53:10;14.35;;;9.05;;
11907;SDS011;6014;47.690;9.130;2022-11-11T07:55:38;15.15;;;8.93;;
11907;SDS011;6014;47.690;9.130;2022-11-11T07:58:15;16.58;;;9.40;;
11907;SDS011;6014;47.690;9.130;2022-11-11T08:00:43;15.40;;;9.13;;
11907;SDS011;6014;47.690;9.130;2022-11-11T08:03:11;18.40;;;9.30;;
11907;SDS011;6014;47.690;9.130;2022-11-11T08:05:41;18.30;;;9.45;;
11907;SDS011;6014;47.690;9.130;2022-11-11T08:08:13;17.63;;;9.50;;
11907;SDS011;6014;47.690;9.130;2022-11-11T08:10:41;18.25;;;10.57;;
11907;SDS011;6014;47.690;9.130;2022-11-11T08:13:11;17.20;;;9.70;;
11907;SDS011;6014;47.690;9.130;2022-11-11T08:15:56;16.23;;;9.52;;
11907;SDS011;6014;47.690;9.130;2022-11-11T08:18:25;19.77;;;10.07;;
11907;SDS011;6014;47.690;9.130;2022-11-11T08:20:53;17.08;;;9.15;;
11907;SDS011;6014;47.690;9.130;2022-11-11T08:23:23;15.82;;;9.10;;
11907;SDS011;6014;47.690;9.130;2022-11-11T08:26:18;20.10;;;9.88;;
11907;SDS011;6014;47.690;9.130;2022-11-11T08:28:54;21.88;;;10.93;;
11907;SDS011;6014;47.690;9.130;2022-11-11T08:31:23;23.58;;;10.38;;
11907;SDS011;6014;47.690;9.130;2022-11-11T08:33:51;19.35;;;10.30;;
11907;SDS011;6014;47.690;9.130;2022-11-11T08:36:20;17.80;;;9.75;;
11907;SDS011;6014;47.690;9.130;2022-11-11T08:38:52;16.98;;;8.85;;
11907;SDS011;6014;47.690;9.130;2022-11-11T08:41:20;18.85;;;10.25;;
11907;SDS011;6014;47.690;9.130;2022-11-11T08:43:50;17.38;;;9.00;;
11907;SDS011;6014;47.690;9.130;2022-11-11T08:46:19;18.63;;;10.38;;
11907;SDS011;6014;47.690;9.130;2022-11-11T08:48:48;15.60;;;9.60;;
11907;SDS011;6014;47.690;9.130;2022-11-11T08:51:16;17.50;;;9.88;;
11907;SDS011;6014;47.690;9.130;2022-11-11T08:53:45;17.25;;;9.82;;
11907;SDS011;6014;47.690;9.130;2022-11-11T08:56:15;18.27;;;10.52;;
11907;SDS011;6014;47.690;9.130;2022-11-11T08:58:43;20.88;;;10.63;;
11907;SDS011;6014;47.690;9.130;2022-11-11T09:01:12;18.05;;;10.05;;
11907;SDS011;6014;47.690;9.130;2022-11-11T09:03:41;17.52;;;10.02;;
11907;SDS011;6014;47.690;9.130;2022-11-11T09:06:11;16.33;;;9.27;;
11907;SDS011;6014;47.690;9.130;2022-11-11T09:08:40;15.20;;;8.85;;
11907;SDS011;6014;47.690;9.130;2022-11-11T09:11:10;17.55;;;9.75;;
11907;SDS011;6014;47.690;9.130;2022-11-11T09:13:40;17.95;;;10.02;;
11907;SDS011;6014;47.690;9.130;2022-11-11T09:16:08;15.90;;;9.43;;
11907;SDS011;6014;47.690;9.130;2022-11-11T09:18:37;18.38;;;10.65;;
11907;SDS011;6014;47.690;9.130;2022-11-11T09:21:05;16.90;;;10.50;;
11907;SDS011;6014;47.690;9.130;2022-11-11T09:23:34;17.27;;;9.95;;
11907;SDS011;6014;47.690;9.130;2022-11-11T09:26:02;20.35;;;10.45;;
11907;SDS011;6014;47.690;9.130;2022-11-11T09:28:30;18.77;;;10.27;;
11907;SDS011;6014;47.690;9.130;2022-11-11T09:31:01;18.98;;;10.95;;
11907;SDS011;6014;47.690;9.130;2022-11-11T09:33:50;14.93;;;9.57;;
11907;SDS011;6014;47.690;9.130;2022-11-11T09:36:19;18.40;;;10.15;;
11907;SDS011;6014;47.690;9.130;2022-11-11T09:38:49;19.85;;;10.98;;
11907;SDS011;6014;47.690;9.130;2022-11-11T09:41:18;19.95;;;12.30;;
11907;SDS011;6014;47.690;9.130;2022-11-11T09:43:51;17.98;;;10.32;;
11907;SDS011;6014;47.690;9.130;2022-11-11T09:46:34;18.30;;;10.38;;
11907;SDS011;6014;47.690;9.130;2022-11-11T09:49:24;16.83;;;10.05;;
11907;SDS011;6014;47.690;9.130;2022-11-11T09:52:18;17.13;;;10.52;;
11907;SDS011;6014;47.690;9.130;2022-11-11T09:54:51;20.77;;;10.98;;
11907;SDS011;6014;47.690;9.130;2022-11-11T09:57:26;21.48;;;11.00;;
11907;SDS011;6014;47.690;9.130;2022-11-11T10:00:04;21.23;;;10.60;;
11907;SDS011;6014;47.690;9.130;2022-11-11T10:02:50;19.65;;;10.93;;
11907;SDS011;6014;47.690;9.130;2022-11-11T10:05:23;19.30;;;10.32;;
11907;SDS011;6014;47.690;9.130;2022-11-11T10:07:55;16.63;;;9.85;;
11907;SDS011;6014;47.690;9.130;2022-11-11T10:10:29;20.88;;;9.63;;
11907;SDS011;6014;47.690;9.130;2022-11-11T10:13:10;17.17;;;10.00;;
11907;SDS011;6014;47.690;9.130;2022-11-11T10:15:44;17.30;;;9.35;;
11907;SDS011;6014;47.690;9.130;2022-11-11T10:18:36;16.83;;;9.90;;
11907;SDS011;6014;47.690;9.130;2022-11-11T10:21:22;18.85;;;10.50;;
11907;SDS011;6014;47.690;9.130;2022-11-11T10:24:15;18.65;;;10.10;;
11907;SDS011;6014;47.690;9.130;2022-11-11T10:26:50;17.80;;;10.77;;
11907;SDS011;6014;47.690;9.130;2022-11-11T10:29:19;17.55;;;10.13;;
11907;SDS011;6014;47.690;9.130;2022-11-11T10:31:53;16.92;;;10.63;;
11907;SDS011;6014;47.690;9.130;2022-11-11T10:34:31;15.98;;;9.48;;
11907;SDS011;6014;47.690;9.130;2022-11-11T10:37:00;16.45;;;9.85;;
11907;SDS011;6014;47.690;9.130;2022-11-11T10:39:35;16.85;;;10.10;;
11907;SDS011;6014;47.690;9.130;2022-11-11T10:42:17;18.67;;;11.10;;
11907;SDS011;6014;47.690;9.130;2022-11-11T10:44:45;16.90;;;10.25;;
11907;SDS011;6014;47.690;9.130;2022-11-11T10:47:14;17.67;;;11.07;;
11907;SDS011;6014;47.690;9.130;2022-11-11T10:49:56;17.08;;;9.73;;
11907;SDS011;6014;47.690;9.130;2022-11-11T10:52:30;17.98;;;10.65;;
11907;SDS011;6014;47.690;9.130;2022-11-11T10:55:07;16.65;;;10.10;;
11907;SDS011;6014;47.690;9.130;2022-11-11T10:57:41;19.88;;;10.93;;
11907;SDS011;6014;47.690;9.130;2022-11-11T11:00:16;16.65;;;9.70;;
11907;SDS011;6014;47.690;9.130;2022-11-11T11:02:46;19.48;;;11.20;;
11907;SDS011;6014;47.690;9.130;2022-11-11T11:05:26;17.77;;;10.07;;
11907;SDS011;6014;47.690;9.130;2022-11-11T11:07:59;19.10;;;10.85;;
11907;SDS011;6014;47.690;9.130;2022-11-11T11:10:36;17.17;;;9.98;;
11907;SDS011;6014;47.690;9.130;2022-11-11T11:13:11;17.77;;;10.48;;
11907;SDS011;6014;47.690;9.130;2022-11-11T11:15:47;19.02;;;9.77;;
11907;SDS011;6014;47.690;9.130;2022-11-11T11:18:23;17.45;;;10.32;;
11907;SDS011;6014;47.690;9.130;2022-11-11T11:20:58;17.73;;;10.50;;
11907;SDS011;6014;47.690;9.130;2022-11-11T11:23:34;16.75;;;9.68;;
11907;SDS011;6014;47.690;9.130;2022-11-11T11:26:05;18.55;;;10.68;;
11907;SDS011;6014;47.690;9.130;2022-11-11T11:28:35;15.85;;;10.27;;
11907;SDS011;6014;47.690;9.130;2022-11-11T11:31:23;18.15;;;11.32;;
11907;SDS011;6014;47.690;9.130;2022-11-11T11:34:03;16.33;;;10.55;;
11907;SDS011;6014;47.690;9.130;2022-11-11T11:36:34;17.02;;;9.77;;
11907;SDS011;6014;47.690;9.130;2022-11-11T11:39:03;17.33;;;10.07;;
11907;SDS011;6014;47.690;9.130;2022-11-11T11:41:35;14.77;;;9.27;;
11907;SDS011;6014;47.690;9.130;2022-11-11T11:46:53;18.08;;;9.23;;
11907;SDS011;6014;47.690;9.130;2022-11-11T11:49:33;15.90;;;10.23;;
11907;SDS011;6014;47.690;9.130;2022-11-11T11:52:23;17.45;;;9.93;;
11907;SDS011;6014;47.690;9.130;2022-11-11T11:55:10;17.10;;;10.07;;
11907;SDS011;6014;47.690;9.130;2022-11-11T11:57:45;17.25;;;10.15;;
11907;SDS011;6014;47.690;9.130;2022-11-11T12:00:26;18.88;;;11.35;;
11907;SDS011;6014;47.690;9.130;2022-11-11T12:03:11;17.35;;;11.00;;
11907;SDS011;6014;47.690;9.130;2022-11-11T12:06:01;16.65;;;10.52;;
11907;SDS011;6014;47.690;9.130;2022-11-11T12:08:41;16.83;;;9.77;;
11907;SDS011;6014;47.690;9.130;2022-11-11T12:11:25;16.67;;;10.50;;
11907;SDS011;6014;47.690;9.130;2022-11-11T12:14:04;16.85;;;10.35;;
11907;SDS011;6014;47.690;9.130;2022-11-11T12:16:56;17.98;;;10.43;;
11907;SDS011;6014;47.690;9.130;2022-11-11T12:19:35;15.55;;;9.63;;
11907;SDS011;6014;47.690;9.130;2022-11-11T12:22:21;14.60;;;10.25;;
11907;SDS011;6014;47.690;9.130;2022-11-11T12:25:14;17.80;;;10.30;;
11907;SDS011;6014;47.690;9.130;2022-11-11T12:27:49;17.95;;;10.90;;
11907;SDS011;6014;47.690;9.130;2022-11-11T12:30:39;17.48;;;10.32;;
11907;SDS011;6014;47.690;9.130;2022-11-11T12:33:19;16.70;;;9.88;;
11907;SDS011;6014;47.690;9.130;2022-11-11T12:36:18;16.05;;;10.50;;
11907;SDS011;6014;47.690;9.130;2022-11-11T12:38:57;16.38;;;10.02;;
11907;SDS011;6014;47.690;9.130;2022-11-11T12:41:44;16.35;;;10.27;;
11907;SDS011;6014;47.690;9.130;2022-11-11T12:44:28;18.48;;;10.55;;
11907;SDS011;6014;47.690;9.130;2022-11-11T12:47:22;17.92;;;9.98;;
11907;SDS011;6014;47.690;9.130;2022-11-11T12:50:05;19.63;;;10.68;;
11907;SDS011;6014;47.690;9.130;2022-11-11T12:52:53;17.40;;;11.27;;
11907;SDS011;6014;47.690;9.130;2022-11-11T12:55:48;17.27;;;10.90;;
11907;SDS011;6014;47.690;9.130;2022-11-11T12:58:32;18.08;;;10.38;;
11907;SDS011;6014;47.690;9.130;2022-11-11T13:01:13;15.55;;;9.75;;
11907;SDS011;6014;47.690;9.130;2022-11-11T13:04:02;16.40;;;10.90;;
11907;SDS011;6014;47.690;9.130;2022-11-11T13:07:01;16.73;;;10.93;;
11907;SDS011;6014;47.690;9.130;2022-11-11T13:10:02;18.05;;;10.68;;
11907;SDS011;6014;47.690;9.130;2022-11-11T13:12:47;16.85;;;10.35;;
11907;SDS011;6014;47.690;9.130;2022-11-11T13:15:27;16.30;;;9.75;;
11907;SDS011;6014;47.690;9.130;2022-11-11T13:17:58;18.88;;;10.25;;
11907;SDS011;6014;47.690;9.130;2022-11-11T13:20:35;15.60;;;9.73;;
11907;SDS011;6014;47.690;9.130;2022-11-11T13:23:13;18.52;;;10.85;;
11907;SDS011;6014;47.690;9.130;2022-11-11T13:25:43;17.92;;;9.88;;
11907;SDS011;6014;47.690;9.130;2022-11-11T13:28:20;17.17;;;10.65;;
11907;SDS011;6014;47.690;9.130;2022-11-11T13:31:01;18.75;;;8.93;;
11907;SDS011;6014;47.690;9.130;2022-11-11T13:33:49;16.98;;;10.30;;
11907;SDS011;6014;47.690;9.130;2022-11-11T13:36:24;16.98;;;10.80;;
11907;SDS011;6014;47.690;9.130;2022-11-11T13:38:54;15.73;;;10.32;;
11907;SDS011;6014;47.690;9.130;2022-11-11T13:41:26;16.98;;;10.25;;
11907;SDS011;6014;47.690;9.130;2022-11-11T13:43:59;17.08;;;10.38;;
11907;SDS011;6014;47.690;9.130;2022-11-11T13:46:35;17.10;;;9.65;;
11907;SDS011;6014;47.690;9.130;2022-11-11T13:49:20;15.90;;;9.38;;
11907;SDS011;6014;47.690;9.130;2022-11-11T13:52:01;17.45;;;9.57;;
11907;SDS011;6014;47.690;9.130;2022-11-11T13:54:31;17.25;;;9.50;;
11907;SDS011;6014;47.690;9.130;2022-11-11T13:57:05;14.20;;;9.32;;
11907;SDS011;6014;47.690;9.130;2022-11-11T13:59:48;15.18;;;9.63;;
11907;SDS011;6014;47.690;9.130;2022-11-11T14:02:26;15.73;;;9.23;;
11907;SDS011;6014;47.690;9.130;2022-11-11T14:07:49;15.10;;;9.32;;
11907;SDS011;6014;47.690;9.130;2022-11-11T14:13:37;13.98;;;8.88;;
11907;SDS011;6014;47.690;9.130;2022-11-11T14:16:08;14.40;;;8.63;;
11907;SDS011;6014;47.690;9.130;2022-11-11T14:18:40;16.13;;;8.80;;
11907;SDS011;6014;47.690;9.130;2022-11-11T14:21:10;17.73;;;9.18;;
11907;SDS011;6014;47.690;9.130;2022-11-11T14:24:25;14.48;;;8.98;;
11907;SDS011;6014;47.690;9.130;2022-11-11T14:27:13;16.05;;;9.35;;
11907;SDS011;6014;47.690;9.130;2022-11-11T14:29:52;17.20;;;9.68;;
11907;SDS011;6014;47.690;9.130;2022-11-11T14:32:39;15.15;;;9.90;;
11907;SDS011;6014;47.690;9.130;2022-11-11T14:35:30;15.20;;;9.88;;
11907;SDS011;6014;47.690;9.130;2022-11-11T14:38:06;16.02;;;9.50;;
11907;SDS011;6014;47.690;9.130;2022-11-11T14:40:53;15.55;;;9.38;;
11907;SDS011;6014;47.690;9.130;2022-11-11T14:46:07;14.70;;;9.05;;
11907;SDS011;6014;47.690;9.130;2022-11-11T14:48:55;15.82;;;9.30;;
11907;SDS011;6014;47.690;9.130;2022-11-11T14:51:37;14.98;;;8.77;;
11907;SDS011;6014;47.690;9.130;2022-11-11T14:54:34;17.35;;;8.85;;
11907;SDS011;6014;47.690;9.130;2022-11-11T14:57:15;14.35;;;9.32;;
11907;SDS011;6014;47.690;9.130;2022-11-11T14:59:49;14.82;;;9.35;;
11907;SDS011;6014;47.690;9.130;2022-11-11T15:02:30;16.33;;;10.55;;
11907;SDS011;6014;47.690;9.130;2022-11-11T15:05:01;17.52;;;10.10;;
11907;SDS011;6014;47.690;9.130;2022-11-11T15:07:44;16.77;;;9.05;;
11907;SDS011;6014;47.690;9.130;2022-11-11T15:10:31;18.65;;;11.05;;
11907;SDS011;6014;47.690;9.130;2022-11-11T15:13:23;15.40;;;10.02;;
11907;SDS011;6014;47.690;9.130;2022-11-11T15:16:13;18.15;;;9.90;;
11907;SDS011;6014;47.690;9.130;2022-11-11T15:19:02;18.05;;;10.75;;
11907;SDS011;6014;47.690;9.130;2022-11-11T15:21:52;15.73;;;9.70;;
11907;SDS011;6014;47.690;9.130;2022-11-11T15:24:37;15.93;;;8.93;;
11907;SDS011;6014;47.690;9.130;2022-11-11T15:27:19;18.45;;;10.38;;
11907;SDS011;6014;47.690;9.130;2022-11-11T15:30:09;18.02;;;10.32;;
11907;SDS011;6014;47.690;9.130;2022-11-11T15:32:49;16.48;;;9.60;;
11907;SDS011;6014;47.690;9.130;2022-11-11T15:35:31;16.25;;;9.80;;
11907;SDS011;6014;47.690;9.130;2022-11-11T15:38:10;17.55;;;9.40;;
11907;SDS011;6014;47.690;9.130;2022-11-11T15:40:43;17.08;;;10.25;;
11907;SDS011;6014;47.690;9.130;2022-11-11T15:43:17;15.18;;;9.43;;
11907;SDS011;6014;47.690;9.130;2022-11-11T15:45:49;18.33;;;9.38;;